Time;durP1;ratioP1;P1;durP2;ratioP2;P2;SDS_P1;SDS_P2;PMS_P1;PMS_P2;Temp;Humidity;BMP_temperature;BMP_pressure;BME280_temperature;BME280_humidity;BME280_pressure;Samples;Min_cycle;Max_cycle;Signal;HPM_P1;HPM_P2
2021/07/12 00:00:56;;;;;;;9.27;5.63;;;;;;;;;;6288910;28;21612;-70
2021/07/12 00:03:58;;;;;;;8.70;5.35;;;;;;;;;;6294565;28;20044;-70
2021/07/12 00:06:59;;;;;;;9.60;5.63;;;;;;;;;;6289138;28;20052;-71
2021/07/12 00:10:01;;;;;;;9.88;6.05;;;;;;;;;;6296400;28;20061;-70
2021/07/12 00:13:03;;;;;;;9.43;5.68;;;;;;;;;;6291804;28;20083;-72
2021/07/12 00:16:06;;;;;;;6.65;4.90;;;;;;;;;;6288704;28;20036;-71
2021/07/12 00:19:08;;;;;;;6.05;4.75;;;;;;;;;;6295446;28;20114;-71
2021/07/12 00:22:09;;;;;;;7.80;5.70;;;;;;;;;;6293926;28;20090;-72
2021/07/12 00:25:12;;;;;;;7.60;5.07;;;;;;;;;;6295526;28;20064;-75
2021/07/12 00:28:14;;;;;;;8.52;5.25;;;;;;;;;;6296798;28;20052;-72
2021/07/12 00:31:17;;;;;;;7.72;5.00;;;;;;;;;;6290241;28;20048;-71
2021/07/12 00:34:19;;;;;;;10.25;5.93;;;;;;;;;;6296815;28;20049;-71
2021/07/12 00:37:20;;;;;;;8.32;5.70;;;;;;;;;;6296134;28;20827;-71
2021/07/12 00:40:24;;;;;;;10.77;6.18;;;;;;;;;;6293211;28;20080;-72
2021/07/12 00:43:26;;;;;;;9.73;5.63;;;;;;;;;;6294300;28;20111;-72
2021/07/12 00:46:30;;;;;;;7.88;5.68;;;;;;;;;;6300587;28;20076;-71
2021/07/12 00:49:32;;;;;;;14.00;8.02;;;;;;;;;;6304963;28;20040;-75
2021/07/12 00:52:34;;;;;;;13.85;7.35;;;;;;;;;;6299447;28;20496;-71
2021/07/12 00:55:38;;;;;;;12.43;5.82;;;;;;;;;;6299695;28;20048;-71
2021/07/12 00:58:39;;;;;;;6.95;5.20;;;;;;;;;;6306895;28;20052;-71
2021/07/12 01:01:42;;;;;;;9.70;5.30;;;;;;;;;;6286398;28;20131;-75
2021/07/12 01:04:44;;;;;;;7.65;4.90;;;;;;;;;;6295243;28;20501;-72
2021/07/12 01:07:46;;;;;;;6.65;5.13;;;;;;;;;;6305855;28;20098;-73
2021/07/12 01:10:54;;;;;;;8.63;4.72;;;;;;;;;;6299967;28;20044;-71
2021/07/12 01:13:59;;;;;;;7.18;4.78;;;;;;;;;;6307456;28;20060;-76
2021/07/12 01:17:10;;;;;;;7.82;4.53;;;;;;;;;;6288622;28;20124;-71
2021/07/12 01:20:45;;;;;;;6.97;3.97;;;;;;;;;;6295885;28;20139;-74
2021/07/12 01:24:26;;;;;;;7.30;4.07;;;;;;;;;;6284426;28;20452;-72
2021/07/12 01:27:54;;;;;;;8.13;4.20;;;;;;;;;;6266776;28;20090;-71
2021/07/12 01:31:31;;;;;;;5.30;3.30;;;;;;;;;;6292002;28;20059;-70
2021/07/12 01:34:38;;;;;;;5.43;4.63;;;;;;;;;;6299753;28;20069;-71
2021/07/12 01:37:46;;;;;;;7.40;4.47;;;;;;;;;;6289630;28;20105;-71
2021/07/12 01:40:52;;;;;;;8.30;3.92;;;;;;;;;;6298678;28;20050;-72
2021/07/12 01:44:00;;;;;;;7.63;3.88;;;;;;;;;;6304378;28;20585;-70
2021/07/12 01:47:06;;;;;;;5.85;4.05;;;;;;;;;;6296095;28;20118;-70
2021/07/12 01:50:15;;;;;;;8.80;4.38;;;;;;;;;;6303287;28;20068;-73
2021/07/12 01:53:20;;;;;;;6.97;4.30;;;;;;;;;;6300099;28;20048;-71
2021/07/12 01:56:29;;;;;;;5.50;4.00;;;;;;;;;;6296683;28;20075;-71
2021/07/12 01:59:38;;;;;;;5.45;3.83;;;;;;;;;;6305485;28;20044;-71
2021/07/12 02:02:42;;;;;;;5.38;3.70;;;;;;;;;;6295947;28;20052;-72
2021/07/12 02:05:46;;;;;;;5.35;3.60;;;;;;;;;;6300068;28;20041;-71
2021/07/12 02:08:49;;;;;;;6.03;3.70;;;;;;;;;;6316741;28;20483;-70
2021/07/12 02:11:51;;;;;;;5.57;4.13;;;;;;;;;;6298914;28;20071;-70
2021/07/12 02:14:53;;;;;;;5.88;3.70;;;;;;;;;;6303140;28;20071;-71
2021/07/12 02:17:55;;;;;;;5.22;4.20;;;;;;;;;;6293660;28;20073;-70
2021/07/12 02:20:58;;;;;;;5.93;4.35;;;;;;;;;;6291194;28;20059;-69
2021/07/12 02:24:00;;;;;;;;;;;;;;;;;;6286598;28;20044;-72
2021/07/12 02:27:03;;;;;;;6.38;3.88;;;;;;;;;;6289037;28;20011;-70
2021/07/12 02:30:06;;;;;;;7.15;3.80;;;;;;;;;;6297579;28;20060;-77
2021/07/12 02:33:08;;;;;;;7.53;4.47;;;;;;;;;;6289260;28;20052;-72
2021/07/12 02:36:11;;;;;;;7.75;4.10;;;;;;;;;;6284936;28;20515;-70
2021/07/12 02:39:12;;;;;;;;;;;;;;;;;;6303630;28;20182;-70
2021/07/12 02:42:15;;;;;;;4.18;3.55;;;;;;;;;;6287857;28;19977;-70
2021/07/12 02:45:17;;;;;;;4.70;3.72;;;;;;;;;;6290590;28;20098;-73
2021/07/12 02:48:19;;;;;;;4.13;3.60;;;;;;;;;;6281416;28;20120;-73
2021/07/12 02:51:32;;;;;;;8.35;3.85;;;;;;;;;;6288214;28;20036;-71
2021/07/12 02:54:39;;;;;;;6.38;3.40;;;;;;;;;;6302258;28;20055;-72
2021/07/12 02:57:42;;;;;;;6.03;3.58;;;;;;;;;;6287117;28;20087;-70
2021/07/12 03:00:44;;;;;;;6.50;3.75;;;;;;;;;;6297905;28;20075;-71
2021/07/12 03:03:45;;;;;;;4.38;3.30;;;;;;;;;;6286387;28;20172;-70
2021/07/12 03:06:52;;;;;;;4.53;3.35;;;;;;;;;;6293031;28;20064;-70
2021/07/12 03:09:56;;;;;;;6.97;3.88;;;;;;;;;;6300399;28;20083;-71
2021/07/12 03:13:00;;;;;;;5.85;3.40;;;;;;;;;;6294706;28;20920;-70
2021/07/12 03:16:02;;;;;;;5.22;3.78;;;;;;;;;;6282869;28;20044;-72
2021/07/12 03:19:04;;;;;;;4.32;3.40;;;;;;;;;;6297016;28;20057;-71
2021/07/12 03:22:11;;;;;;;7.40;3.97;;;;;;;;;;6291872;28;20124;-72
2021/07/12 03:25:13;;;;;;;6.10;3.80;;;;;;;;;;6296020;28;20469;-72
2021/07/12 03:28:15;;;;;;;5.75;3.72;;;;;;;;;;6295767;28;20102;-70
2021/07/12 03:31:19;;;;;;;7.00;4.05;;;;;;;;;;6286631;28;20128;-70
2021/07/12 03:34:21;;;;;;;5.10;3.58;;;;;;;;;;6293765;28;20112;-71
2021/07/12 03:37:25;;;;;;;4.82;3.60;;;;;;;;;;6292567;28;20044;-75
2021/07/12 03:40:27;;;;;;;5.72;3.35;;;;;;;;;;6298825;28;20113;-70
2021/07/12 03:43:29;;;;;;;5.03;3.90;;;;;;;;;;6295305;28;20064;-70
2021/07/12 03:46:30;;;;;;;4.82;3.53;;;;;;;;;;6292146;28;20044;-72
2021/07/12 03:49:32;;;;;;;4.28;3.40;;;;;;;;;;6296280;28;20067;-70
2021/07/12 03:52:41;;;;;;;4.90;3.72;;;;;;;;;;6291553;28;20063;-71
2021/07/12 03:55:43;;;;;;;5.75;3.53;;;;;;;;;;6295408;28;20090;-70
2021/07/12 03:58:44;;;;;;;5.03;3.35;;;;;;;;;;6290675;28;20049;-71
2021/07/12 04:01:46;;;;;;;4.85;3.55;;;;;;;;;;6288290;28;20102;-70
2021/07/12 04:04:48;;;;;;;7.57;4.00;;;;;;;;;;6292815;28;20052;-71
2021/07/12 04:07:51;;;;;;;5.38;3.50;;;;;;;;;;6292330;28;20084;-70
2021/07/12 04:10:53;;;;;;;;;;;;;;;;;;6290247;28;20488;-70
2021/07/12 04:13:55;;;;;;;6.10;3.60;;;;;;;;;;6295870;28;20393;-70
2021/07/12 04:16:56;;;;;;;6.60;3.40;;;;;;;;;;6289709;28;20078;-72
2021/07/12 04:19:59;;;;;;;6.30;3.15;;;;;;;;;;6297757;28;20056;-71
2021/07/12 04:23:02;;;;;;;5.07;3.30;;;;;;;;;;6291079;28;20050;-71
2021/07/12 04:26:04;;;;;;;3.70;3.13;;;;;;;;;;6300012;28;20103;-71
2021/07/12 04:29:06;;;;;;;5.80;3.75;;;;;;;;;;6306227;28;20049;-72
2021/07/12 04:32:09;;;;;;;5.45;3.17;;;;;;;;;;6296053;28;20053;-71
2021/07/12 04:35:12;;;;;;;4.22;2.83;;;;;;;;;;6294667;28;20488;-74
2021/07/12 04:38:15;;;;;;;7.85;3.05;;;;;;;;;;6298724;28;20045;-73
2021/07/12 04:41:16;;;;;;;5.78;3.75;;;;;;;;;;6297336;28;20051;-71
2021/07/12 04:44:18;;;;;;;4.10;3.20;;;;;;;;;;6301254;28;20084;-72
2021/07/12 04:47:20;;;;;;;4.00;2.95;;;;;;;;;;6286231;28;20111;-71
2021/07/12 04:50:22;;;;;;;5.07;3.28;;;;;;;;;;6293790;28;20171;-75
2021/07/12 04:53:25;;;;;;;3.63;2.85;;;;;;;;;;6299344;28;20153;-74
2021/07/12 04:56:26;;;;;;;5.57;3.15;;;;;;;;;;6290966;28;20052;-71
2021/07/12 04:59:29;;;;;;;5.97;3.22;;;;;;;;;;6298826;28;20074;-73
2021/07/12 05:02:30;;;;;;;6.45;3.25;;;;;;;;;;6290519;28;20521;-71
2021/07/12 05:05:32;;;;;;;6.13;3.55;;;;;;;;;;6290582;28;20074;-74
2021/07/12 05:08:35;;;;;;;5.10;3.50;;;;;;;;;;6297206;28;20063;-71
2021/07/12 05:11:37;;;;;;;4.30;3.00;;;;;;;;;;6293312;28;20512;-73
2021/07/12 05:14:39;;;;;;;4.10;3.13;;;;;;;;;;6302414;28;20052;-71
2021/07/12 05:17:42;;;;;;;6.13;3.40;;;;;;;;;;6288481;28;20097;-71
2021/07/12 05:20:44;;;;;;;7.07;3.45;;;;;;;;;;6285178;28;20072;-72
2021/07/12 05:23:47;;;;;;;5.15;3.63;;;;;;;;;;6294075;28;20086;-69
2021/07/12 05:26:48;;;;;;;10.75;4.40;;;;;;;;;;6278696;28;20496;-72
2021/07/12 05:29:50;;;;;;;8.38;4.85;;;;;;;;;;6287216;28;20482;-70
2021/07/12 05:32:52;;;;;;;8.55;5.05;;;;;;;;;;6281659;28;20083;-72
2021/07/12 05:35:54;;;;;;;8.40;5.25;;;;;;;;;;6282319;28;20083;-72
2021/07/12 05:38:57;;;;;;;9.73;5.60;;;;;;;;;;6290796;28;20155;-72
2021/07/12 05:41:58;;;;;;;8.82;4.65;;;;;;;;;;6285288;28;20193;-72
2021/07/12 05:45:00;;;;;;;10.77;4.68;;;;;;;;;;6294480;28;20076;-72
2021/07/12 05:48:02;;;;;;;7.40;4.43;;;;;;;;;;6282642;28;20045;-72
2021/07/12 05:51:03;;;;;;;10.52;4.10;;;;;;;;;;6286564;28;20056;-72
2021/07/12 05:54:06;;;;;;;6.25;3.95;;;;;;;;;;6298809;28;20097;-71
2021/07/12 05:57:08;;;;;;;7.28;4.18;;;;;;;;;;6288876;28;20424;-71
2021/07/12 06:00:12;;;;;;;5.45;4.13;;;;;;;;;;6298910;28;20040;-71
2021/07/12 06:03:14;;;;;;;4.80;3.55;;;;;;;;;;6284864;28;22282;-71
2021/07/12 06:06:15;;;;;;;7.13;3.72;;;;;;;;;;6290964;28;20049;-70
2021/07/12 06:09:18;;;;;;;7.03;3.22;;;;;;;;;;6297816;28;20100;-71
2021/07/12 06:12:20;;;;;;;6.28;3.33;;;;;;;;;;6289952;28;20472;-70
2021/07/12 06:15:22;;;;;;;4.72;3.10;;;;;;;;;;6290656;28;20064;-71
2021/07/12 06:18:23;;;;;;;5.43;2.80;;;;;;;;;;6287071;28;20133;-70
2021/07/12 06:21:26;;;;;;;4.20;2.90;;;;;;;;;;6286317;28;20131;-70
2021/07/12 06:24:29;;;;;;;6.60;3.40;;;;;;;;;;6288762;28;20131;-71
2021/07/12 06:27:30;;;;;;;6.32;3.00;;;;;;;;;;6287686;28;20086;-71
2021/07/12 06:30:32;;;;;;;4.88;3.50;;;;;;;;;;6287622;28;20037;-73
2021/07/12 06:33:34;;;;;;;3.78;2.95;;;;;;;;;;6287463;28;20129;-72
2021/07/12 06:36:35;;;;;;;5.53;2.88;;;;;;;;;;6279705;28;20048;-68
2021/07/12 06:39:39;;;;;;;5.53;3.13;;;;;;;;;;6290317;28;20189;-69
2021/07/12 06:42:41;;;;;;;4.80;2.33;;;;;;;;;;6285022;28;20094;-69
2021/07/12 06:45:44;;;;;;;5.57;2.47;;;;;;;;;;6290129;28;20170;-69
2021/07/12 06:48:45;;;;;;;18.67;3.45;;;;;;;;;;6289518;28;20551;-68
2021/07/12 06:51:48;;;;;;;3.33;2.20;;;;;;;;;;6282525;28;20041;-74
2021/07/12 06:54:51;;;;;;;3.67;1.88;;;;;;;;;;6286088;28;20130;-69
2021/07/12 06:57:52;;;;;;;;;;;;;;;;;;6282868;28;20525;-68
2021/07/12 07:00:54;;;;;;;4.43;1.83;;;;;;;;;;6276844;28;19955;-70
2021/07/12 07:03:56;;;;;;;6.45;2.25;;;;;;;;;;6282634;28;20184;-68
2021/07/12 07:06:57;;;;;;;3.60;1.77;;;;;;;;;;6278014;28;20080;-69
2021/07/12 07:10:00;;;;;;;3.47;1.77;;;;;;;;;;6287586;28;20390;-69
2021/07/12 07:13:02;;;;;;;4.07;2.40;;;;;;;;;;6284086;28;20158;-69
2021/07/12 07:16:04;;;;;;;6.10;2.30;;;;;;;;;;6275515;28;20079;-70
2021/07/12 07:19:05;;;;;;;3.85;2.15;;;;;;;;;;6288394;28;20079;-68
2021/07/12 07:22:07;;;;;;;3.30;2.08;;;;;;;;;;6275442;28;20127;-69
2021/07/12 07:25:11;;;;;;;4.28;2.58;;;;;;;;;;6285328;28;20119;-70
2021/07/12 07:28:13;;;;;;;3.47;2.22;;;;;;;;;;6282225;28;20511;-69
2021/07/12 07:31:15;;;;;;;3.83;2.08;;;;;;;;;;6266523;28;21681;-69
2021/07/12 07:34:16;;;;;;;4.10;2.75;;;;;;;;;;6271454;28;20488;-69
2021/07/12 07:37:18;;;;;;;3.20;2.40;;;;;;;;;;6265415;28;20056;-69
2021/07/12 07:40:21;;;;;;;4.72;2.20;;;;;;;;;;6271897;28;20052;-69
2021/07/12 07:43:23;;;;;;;5.47;2.55;;;;;;;;;;6269002;28;20044;-69
2021/07/12 07:46:25;;;;;;;5.93;3.08;;;;;;;;;;6262334;28;20044;-70
2021/07/12 07:49:27;;;;;;;4.55;2.78;;;;;;;;;;6267015;28;20049;-69
2021/07/12 07:52:28;;;;;;;5.20;3.13;;;;;;;;;;6269810;28;20691;-69
2021/07/12 07:55:32;;;;;;;4.25;2.75;;;;;;;;;;6271042;28;20135;-70
2021/07/12 07:58:34;;;;;;;7.65;2.90;;;;;;;;;;6272971;28;20074;-69
2021/07/12 08:01:35;;;;;;;13.35;4.00;;;;;;;;;;6266519;28;20053;-69
2021/07/12 08:04:37;;;;;;;4.38;2.72;;;;;;;;;;6271954;28;20153;-69
2021/07/12 08:07:39;;;;;;;8.80;3.28;;;;;;;;;;6263991;28;20078;-69
2021/07/12 08:10:42;;;;;;;5.85;3.45;;;;;;;;;;6263836;28;20041;-69
2021/07/12 08:13:44;;;;;;;7.00;3.50;;;;;;;;;;6275109;28;20045;-69
2021/07/12 08:16:48;;;;;;;6.72;3.17;;;;;;;;;;6262945;28;20689;-70
2021/07/12 08:19:50;;;;;;;4.45;3.53;;;;;;;;;;6281415;28;20040;-69
2021/07/12 08:22:52;;;;;;;5.13;3.30;;;;;;;;;;6267458;28;20416;-69
2021/07/12 08:25:55;;;;;;;5.63;3.50;;;;;;;;;;6273146;28;20366;-69
2021/07/12 08:28:58;;;;;;;5.65;4.07;;;;;;;;;;6276870;28;20263;-69
2021/07/12 08:32:00;;;;;;;5.50;3.30;;;;;;;;;;6268473;28;20045;-69
2021/07/12 08:35:03;;;;;;;6.40;3.17;;;;;;;;;;6273979;28;20539;-69
2021/07/12 08:38:05;;;;;;;5.25;3.50;;;;;;;;;;6269016;28;20074;-73
2021/07/12 08:41:09;;;;;;;4.05;2.85;;;;;;;;;;6265867;28;20526;-71
2021/07/12 08:44:10;;;;;;;6.75;4.00;;;;;;;;;;6265314;28;20053;-71
2021/07/12 08:47:12;;;;;;;5.30;3.10;;;;;;;;;;6272145;28;21662;-70
2021/07/12 08:50:14;;;;;;;6.57;3.53;;;;;;;;;;6280607;28;20049;-71
2021/07/12 08:53:16;;;;;;;5.18;2.80;;;;;;;;;;6281550;28;20076;-71
2021/07/12 08:56:19;;;;;;;6.75;4.30;;;;;;;;;;6282599;28;20118;-70
2021/07/12 08:59:26;;;;;;;4.95;3.15;;;;;;;;;;6289717;28;20572;-70
2021/07/12 09:02:28;;;;;;;5.50;3.50;;;;;;;;;;6275185;28;20041;-70
2021/07/12 09:05:30;;;;;;;4.43;3.80;;;;;;;;;;6275155;28;20182;-71
2021/07/12 09:08:55;;;;;;;9.88;4.10;;;;;;;;;;6285606;28;20144;-69
2021/07/12 09:12:09;;;;;;;13.60;4.10;;;;;;;;;;6262066;28;20079;-69
2021/07/12 09:15:13;;;;;;;8.25;3.72;;;;;;;;;;6293886;28;20093;-71
2021/07/12 09:18:15;;;;;;;6.30;3.90;;;;;;;;;;6288265;28;21704;-69
2021/07/12 09:21:17;;;;;;;10.43;4.57;;;;;;;;;;6286759;28;20117;-69
2021/07/12 09:24:38;;;;;;;24.23;7.07;;;;;;;;;;6295194;28;20052;-69
2021/07/12 09:27:43;;;;;;;9.45;4.80;;;;;;;;;;6287719;28;20128;-69
2021/07/12 09:30:44;;;;;;;6.07;4.00;;;;;;;;;;6289125;28;20108;-69
2021/07/12 09:33:49;;;;;;;6.35;4.07;;;;;;;;;;6292714;28;20116;-69
2021/07/12 09:36:51;;;;;;;6.90;4.78;;;;;;;;;;6286647;28;20045;-69
2021/07/12 09:39:53;;;;;;;;;;;;;;;;;;6296234;28;20076;-69
2021/07/12 09:42:56;;;;;;;7.18;4.40;;;;;;;;;;6287688;28;19931;-69
2021/07/12 09:45:58;;;;;;;6.30;4.20;;;;;;;;;;6283789;28;20504;-68
2021/07/12 09:49:08;;;;;;;8.85;4.10;;;;;;;;;;6288074;28;20233;-68
2021/07/12 09:52:12;;;;;;;9.25;4.90;;;;;;;;;;6287633;28;20051;-69
2021/07/12 09:55:16;;;;;;;7.65;4.70;;;;;;;;;;6285893;28;20052;-70
2021/07/12 09:58:20;;;;;;;6.53;4.70;;;;;;;;;;6282034;28;20048;-69
2021/07/12 10:01:25;;;;;;;6.57;4.10;;;;;;;;;;6285843;28;20124;-69
2021/07/12 10:04:28;;;;;;;5.07;4.20;;;;;;;;;;6287262;28;20057;-69
2021/07/12 10:07:30;;;;;;;5.68;3.40;;;;;;;;;;6284377;28;20045;-69
2021/07/12 10:10:32;;;;;;;6.82;4.40;;;;;;;;;;6286892;28;20047;-69
2021/07/12 10:13:35;;;;;;;8.18;4.70;;;;;;;;;;6286446;28;20197;-68
2021/07/12 10:16:37;;;;;;;8.20;5.13;;;;;;;;;;6280575;28;20499;-69
2021/07/12 10:19:38;;;;;;;6.78;4.30;;;;;;;;;;6294239;28;20060;-69
2021/07/12 10:22:43;;;;;;;6.80;4.40;;;;;;;;;;6291132;28;20056;-69
2021/07/12 10:25:46;;;;;;;4.65;3.70;;;;;;;;;;6293456;28;20044;-69
2021/07/12 10:28:52;;;;;;;5.35;3.78;;;;;;;;;;6292784;28;20052;-68
2021/07/12 10:31:55;;;;;;;7.47;4.15;;;;;;;;;;6283971;28;20492;-69
2021/07/12 10:34:58;;;;;;;5.93;4.07;;;;;;;;;;6290933;28;20040;-68
2021/07/12 10:38:00;;;;;;;5.65;4.18;;;;;;;;;;6283129;28;20623;-69
2021/07/12 10:41:04;;;;;;;7.22;4.47;;;;;;;;;;6288083;28;20056;-71
2021/07/12 10:44:07;;;;;;;5.15;4.15;;;;;;;;;;6292995;28;20044;-70
2021/07/12 10:47:42;;;;;;;5.53;3.80;;;;;;;;;;6286260;28;20064;-70
2021/07/12 10:50:54;;;;;;;5.63;4.75;;;;;;;;;;6279628;28;20521;-72
2021/07/12 10:53:58;;;;;;;7.85;3.90;;;;;;;;;;6290294;28;20147;-70
2021/07/12 10:57:00;;;;;;;5.72;3.83;;;;;;;;;;6284807;28;20055;-69
2021/07/12 11:00:13;;;;;;;7.07;3.95;;;;;;;;;;6293103;28;20051;-69
2021/07/12 11:03:34;;;;;;;4.70;3.70;;;;;;;;;;6280865;28;20068;-70
2021/07/12 11:06:53;;;;;;;5.82;5.00;;;;;;;;;;6277888;28;20095;-70
2021/07/12 11:10:00;;;;;;;7.93;4.40;;;;;;;;;;6293597;28;20040;-69
2021/07/12 11:13:02;;;;;;;5.68;4.82;;;;;;;;;;6284698;28;20048;-70
2021/07/12 11:16:16;;;;;;;8.18;4.57;;;;;;;;;;6279896;28;20041;-70
2021/07/12 11:19:20;;;;;;;6.72;5.28;;;;;;;;;;6286564;28;20051;-70
2021/07/12 11:22:25;;;;;;;6.60;4.22;;;;;;;;;;6287110;28;20206;-77
2021/07/12 11:25:40;;;;;;;8.90;5.75;;;;;;;;;;6287958;28;20041;-70
2021/07/12 11:28:43;;;;;;;5.00;4.05;;;;;;;;;;6288822;28;20051;-69
2021/07/12 11:31:48;;;;;;;6.90;5.22;;;;;;;;;;6279843;28;20065;-68
2021/07/12 11:34:54;;;;;;;7.03;5.13;;;;;;;;;;6289796;28;20175;-70
2021/07/12 11:37:58;;;;;;;5.82;5.00;;;;;;;;;;6291068;28;20131;-69
2021/07/12 11:41:06;;;;;;;7.30;5.40;;;;;;;;;;6290223;28;20174;-69
2021/07/12 11:44:08;;;;;;;7.38;4.80;;;;;;;;;;6296783;28;20056;-69
2021/07/12 11:47:16;;;;;;;6.28;4.10;;;;;;;;;;6277695;28;20074;-69
2021/07/12 11:50:19;;;;;;;6.28;4.97;;;;;;;;;;6289953;28;20927;-73
2021/07/12 11:53:21;;;;;;;8.13;5.43;;;;;;;;;;6289806;28;20054;-70
2021/07/12 11:56:22;;;;;;;7.93;4.53;;;;;;;;;;6284610;28;20138;-71
2021/07/12 11:59:28;;;;;;;7.37;5.00;;;;;;;;;;6289148;28;20071;-71
2021/07/12 12:02:31;;;;;;;5.82;4.35;;;;;;;;;;6279916;28;20588;-71
2021/07/12 12:05:34;;;;;;;5.75;3.78;;;;;;;;;;6279640;28;20143;-71
2021/07/12 12:08:36;;;;;;;9.25;4.53;;;;;;;;;;6287664;28;20141;-71
2021/07/12 12:11:38;;;;;;;;;;;;;;;;;;6280472;28;20047;-72
2021/07/12 12:14:39;;;;;;;5.55;3.60;;;;;;;;;;6283191;28;19952;-71
2021/07/12 12:17:49;;;;;;;6.03;4.00;;;;;;;;;;6271362;28;20127;-71
2021/07/12 12:20:57;;;;;;;7.10;4.20;;;;;;;;;;6278006;28;20080;-71
2021/07/12 12:23:59;;;;;;;5.50;4.38;;;;;;;;;;6282550;28;20052;-71
2021/07/12 12:27:01;;;;;;;7.47;4.28;;;;;;;;;;6276315;28;20052;-72
2021/07/12 12:30:03;;;;;;;8.50;3.50;;;;;;;;;;6283280;28;20099;-72
2021/07/12 12:33:06;;;;;;;5.22;3.83;;;;;;;;;;6274518;28;20051;-72
2021/07/12 12:36:09;;;;;;;4.22;3.25;;;;;;;;;;6274555;28;20124;-72
2021/07/12 12:39:13;;;;;;;6.05;3.67;;;;;;;;;;6277223;28;20053;-72
2021/07/12 12:42:27;;;;;;;3.63;3.33;;;;;;;;;;6278575;28;20123;-71
2021/07/12 12:45:30;;;;;;;6.20;3.28;;;;;;;;;;6282883;28;20184;-73
2021/07/12 12:48:41;;;;;;;3.88;3.22;;;;;;;;;;6281459;28;20040;-72
2021/07/12 12:51:52;;;;;;;6.03;2.95;;;;;;;;;;6283427;28;20123;-72
2021/07/12 12:54:53;;;;;;;5.75;3.45;;;;;;;;;;6288837;28;20075;-71
2021/07/12 12:57:55;;;;;;;5.30;4.10;;;;;;;;;;6280994;28;20073;-72
2021/07/12 13:00:56;;;;;;;4.05;3.22;;;;;;;;;;6278656;28;20182;-73
2021/07/12 13:04:21;;;;;;;4.43;3.95;;;;;;;;;;6286123;28;20052;-73
2021/07/12 13:07:25;;;;;;;4.25;3.15;;;;;;;;;;6282371;28;20063;-74
2021/07/12 13:10:28;;;;;;;4.75;3.25;;;;;;;;;;6290029;28;20044;-73
2021/07/12 13:13:31;;;;;;;4.78;3.20;;;;;;;;;;6292257;28;20083;-73
2021/07/12 13:16:35;;;;;;;5.40;3.00;;;;;;;;;;6283742;28;20058;-73
2021/07/12 13:19:39;;;;;;;5.43;3.00;;;;;;;;;;6293822;28;20063;-73
2021/07/12 13:22:42;;;;;;;5.03;3.08;;;;;;;;;;6285075;28;20952;-74
2021/07/12 13:25:43;;;;;;;6.22;3.65;;;;;;;;;;6285249;28;20093;-74
2021/07/12 13:28:45;;;;;;;;;;;;;;;;;;6293168;28;20183;-73
2021/07/12 13:31:46;;;;;;;4.47;2.60;;;;;;;;;;6274655;28;20009;-73
2021/07/12 13:34:57;;;;;;;3.85;3.20;;;;;;;;;;6288231;28;20574;-72
2021/07/12 13:38:01;;;;;;;6.78;2.92;;;;;;;;;;6276526;28;20167;-73
2021/07/12 13:41:04;;;;;;;3.15;2.60;;;;;;;;;;6278567;28;20070;-73
2021/07/12 13:44:06;;;;;;;6.25;3.38;;;;;;;;;;6288682;28;20071;-73
2021/07/12 13:47:08;;;;;;;4.13;3.20;;;;;;;;;;6278339;28;20048;-74
2021/07/12 13:50:13;;;;;;;;;;;;;;;;;;6282792;28;20051;-75
2021/07/12 13:53:14;;;;;;;5.35;3.25;;;;;;;;;;6282010;28;19970;-74
2021/07/12 13:56:16;;;;;;;4.25;2.80;;;;;;;;;;6279240;28;21076;-74
2021/07/12 13:59:18;;;;;;;4.72;3.38;;;;;;;;;;6288146;28;20626;-73
2021/07/12 14:02:20;;;;;;;6.03;2.95;;;;;;;;;;6276809;28;20062;-73
2021/07/12 14:05:23;;;;;;;4.75;2.70;;;;;;;;;;6280487;28;20840;-75
2021/07/12 14:08:24;;;;;;;3.88;3.40;;;;;;;;;;6285603;28;20200;-73
2021/07/12 14:11:26;;;;;;;6.47;3.80;;;;;;;;;;6284065;28;20163;-72
2021/07/12 14:14:28;;;;;;;4.53;3.20;;;;;;;;;;6285109;28;20137;-73
2021/07/12 14:17:30;;;;;;;6.63;3.38;;;;;;;;;;6256852;28;20255;-72
2021/07/12 14:20:33;;;;;;;5.93;3.63;;;;;;;;;;6267260;28;20205;-73
2021/07/12 14:23:34;;;;;;;7.05;3.67;;;;;;;;;;6284327;28;20129;-72
2021/07/12 14:26:36;;;;;;;4.50;3.42;;;;;;;;;;6284933;28;20139;-73
2021/07/12 14:29:38;;;;;;;5.60;3.28;;;;;;;;;;6289190;28;20501;-73
2021/07/12 14:32:40;;;;;;;6.15;4.13;;;;;;;;;;6279725;28;20073;-72
2021/07/12 14:35:43;;;;;;;5.38;3.65;;;;;;;;;;6277609;28;20060;-73
2021/07/12 14:38:44;;;;;;;7.55;3.72;;;;;;;;;;6283497;28;20131;-72
2021/07/12 14:41:46;;;;;;;6.20;3.97;;;;;;;;;;6279780;28;20186;-72
2021/07/12 14:44:48;;;;;;;3.95;3.25;;;;;;;;;;6288871;28;20189;-71
2021/07/12 14:47:49;;;;;;;5.03;3.97;;;;;;;;;;6275993;28;20111;-72
2021/07/12 14:50:52;;;;;;;8.02;3.55;;;;;;;;;;6277259;28;20135;-71
2021/07/12 14:53:55;;;;;;;6.15;4.50;;;;;;;;;;6283669;28;20086;-71
2021/07/12 14:56:56;;;;;;;9.20;4.45;;;;;;;;;;6276976;28;20057;-73
2021/07/12 14:59:58;;;;;;;4.60;3.67;;;;;;;;;;6287923;28;20079;-73
2021/07/12 15:03:00;;;;;;;4.67;3.60;;;;;;;;;;6272739;28;20509;-73
2021/07/12 15:06:03;;;;;;;7.57;4.40;;;;;;;;;;6284636;28;20118;-73
2021/07/12 15:09:05;;;;;;;5.93;4.13;;;;;;;;;;6283269;28;20139;-72
2021/07/12 15:12:08;;;;;;;8.47;4.83;;;;;;;;;;6283771;28;20143;-74
2021/07/12 15:15:12;;;;;;;5.05;4.00;;;;;;;;;;6281425;28;20130;-76
2021/07/12 15:18:13;;;;;;;6.85;4.40;;;;;;;;;;6279105;28;20137;-75
2021/07/12 15:21:17;;;;;;;6.63;4.20;;;;;;;;;;6278434;28;20101;-72
2021/07/12 15:24:20;;;;;;;7.28;4.03;;;;;;;;;;6276263;28;20552;-73
2021/07/12 15:27:21;;;;;;;4.75;4.22;;;;;;;;;;6279818;28;20131;-72
2021/07/12 15:30:23;;;;;;;10.70;3.75;;;;;;;;;;6274868;28;20053;-74
2021/07/12 15:33:25;;;;;;;5.17;4.10;;;;;;;;;;6274871;28;20136;-72
2021/07/12 15:36:27;;;;;;;6.77;3.70;;;;;;;;;;6276005;28;20704;-73
2021/07/12 15:39:29;;;;;;;6.25;4.03;;;;;;;;;;6286732;28;20131;-74
2021/07/12 15:42:31;;;;;;;6.93;4.83;;;;;;;;;;6275799;28;20103;-73
2021/07/12 15:45:32;;;;;;;5.78;3.58;;;;;;;;;;6281499;28;20460;-74
2021/07/12 15:48:35;;;;;;;6.80;4.40;;;;;;;;;;6286554;28;20064;-72
2021/07/12 15:51:38;;;;;;;5.85;4.20;;;;;;;;;;6284238;28;20052;-72
2021/07/12 15:54:39;;;;;;;6.70;4.97;;;;;;;;;;6294320;28;20493;-72
2021/07/12 15:57:42;;;;;;;4.72;4.05;;;;;;;;;;6286494;28;20142;-73
2021/07/12 16:00:43;;;;;;;6.50;5.30;;;;;;;;;;6285759;28;20047;-74
2021/07/12 16:03:45;;;;;;;5.13;4.25;;;;;;;;;;6286405;28;20182;-74
2021/07/12 16:06:48;;;;;;;6.25;4.03;;;;;;;;;;6285428;28;20104;-72
2021/07/12 16:09:49;;;;;;;10.05;4.05;;;;;;;;;;6288505;28;20082;-75
2021/07/12 16:12:51;;;;;;;5.77;3.93;;;;;;;;;;6276159;28;20048;-74
2021/07/12 16:15:53;;;;;;;7.57;4.93;;;;;;;;;;6275896;28;20849;-74
2021/07/12 16:18:55;;;;;;;6.45;4.70;;;;;;;;;;6280852;28;20110;-72
2021/07/12 16:21:59;;;;;;;5.15;4.07;;;;;;;;;;6278890;28;20052;-73
2021/07/12 16:25:00;;;;;;;4.95;4.20;;;;;;;;;;6285760;28;20611;-72
2021/07/12 16:28:03;;;;;;;6.15;4.60;;;;;;;;;;6279756;28;20069;-74
2021/07/12 16:31:05;;;;;;;9.23;4.57;;;;;;;;;;6282976;28;20364;-74
2021/07/12 16:34:06;;;;;;;7.35;5.20;;;;;;;;;;6284718;28;20106;-72
2021/07/12 16:37:10;;;;;;;5.88;4.85;;;;;;;;;;6279422;28;20041;-72
2021/07/12 16:40:13;;;;;;;7.53;4.78;;;;;;;;;;6285715;28;20471;-73
2021/07/12 16:43:15;;;;;;;6.65;4.60;;;;;;;;;;6282339;28;20148;-72
2021/07/12 16:46:17;;;;;;;5.40;3.88;;;;;;;;;;6286165;28;20496;-72
2021/07/12 16:49:18;;;;;;;5.20;4.70;;;;;;;;;;6288010;28;20514;-72
2021/07/12 16:52:21;;;;;;;5.07;3.92;;;;;;;;;;6277532;28;20040;-72
2021/07/12 16:55:25;;;;;;;6.00;5.40;;;;;;;;;;6281423;28;21585;-77
2021/07/12 16:58:29;;;;;;;6.03;4.30;;;;;;;;;;6294015;28;20064;-74
2021/07/12 17:01:31;;;;;;;7.05;4.00;;;;;;;;;;6286949;28;20078;-74
2021/07/12 17:04:32;;;;;;;5.75;3.60;;;;;;;;;;6289081;28;20511;-73
2021/07/12 17:07:36;;;;;;;9.02;4.30;;;;;;;;;;6282089;28;20056;-75
2021/07/12 17:10:37;;;;;;;6.15;3.20;;;;;;;;;;6283643;28;20662;-73
2021/07/12 17:13:39;;;;;;;8.57;3.50;;;;;;;;;;6291688;28;20051;-76
2021/07/12 17:16:41;;;;;;;5.57;3.60;;;;;;;;;;6276386;28;20075;-73
2021/07/12 17:19:45;;;;;;;5.32;3.58;;;;;;;;;;6292182;28;20075;-74
2021/07/12 17:22:48;;;;;;;5.30;3.67;;;;;;;;;;6280675;28;20048;-73
2021/07/12 17:25:50;;;;;;;6.40;3.70;;;;;;;;;;6285338;28;20068;-73
2021/07/12 17:28:52;;;;;;;4.88;3.63;;;;;;;;;;6289643;28;20152;-73
2021/07/12 17:31:53;;;;;;;5.60;3.85;;;;;;;;;;6285689;28;20503;-72
2021/07/12 17:34:55;;;;;;;5.68;3.30;;;;;;;;;;6293990;28;20512;-75
2021/07/12 17:37:58;;;;;;;5.50;3.50;;;;;;;;;;6284511;28;20056;-73
2021/07/12 17:41:00;;;;;;;4.25;3.05;;;;;;;;;;6291797;28;20126;-73
2021/07/12 17:44:02;;;;;;;12.00;4.13;;;;;;;;;;6293631;28;20048;-71
2021/07/12 17:47:05;;;;;;;3.60;3.22;;;;;;;;;;6290471;28;20622;-73
2021/07/12 17:50:09;;;;;;;5.95;3.55;;;;;;;;;;6299514;28;20120;-77
2021/07/12 17:53:12;;;;;;;4.85;3.20;;;;;;;;;;6289524;28;20129;-73
2021/07/12 17:56:14;;;;;;;5.90;3.75;;;;;;;;;;6290211;28;20064;-71
2021/07/12 17:59:15;;;;;;;6.30;3.60;;;;;;;;;;6301061;28;20049;-71
2021/07/12 18:02:18;;;;;;;7.57;3.40;;;;;;;;;;6295982;28;20077;-76
2021/07/12 18:05:21;;;;;;;4.13;3.63;;;;;;;;;;6286414;28;20051;-74
2021/07/12 18:08:25;;;;;;;5.55;3.78;;;;;;;;;;6299265;28;20046;-72
2021/07/12 18:11:27;;;;;;;3.97;3.25;;;;;;;;;;6288299;28;20411;-72
2021/07/12 18:14:29;;;;;;;5.18;3.30;;;;;;;;;;6298392;28;20438;-70
2021/07/12 18:17:31;;;;;;;5.85;3.97;;;;;;;;;;6290364;28;20071;-71
2021/07/12 18:20:33;;;;;;;6.97;3.40;;;;;;;;;;6290726;28;20071;-74
2021/07/12 18:23:36;;;;;;;6.65;3.50;;;;;;;;;;6296193;28;20075;-71